地図

経路データ

SID SEASON NUMBER BASIN SUBBASIN NAME ISO_TIME NATURE LAT LON WMO_WIND WMO_PRES WMO_AGENCY TRACK_TYPE DIST2LAND LANDFALL IFLAG USA_AGENCY USA_ATCF_ID USA_LAT USA_LON USA_RECORD USA_STATUS USA_WIND USA_PRES USA_SSHS USA_R34_NE USA_R34_SE USA_R34_SW USA_R34_NW USA_R50_NE USA_R50_SE USA_R50_SW USA_R50_NW USA_R64_NE USA_R64_SE USA_R64_SW USA_R64_NW USA_POCI USA_ROCI USA_RMW USA_EYE TOKYO_LAT TOKYO_LON TOKYO_GRADE TOKYO_WIND TOKYO_PRES TOKYO_R50_DIR TOKYO_R50_LONG TOKYO_R50_SHORT TOKYO_R30_DIR TOKYO_R30_LONG TOKYO_R30_SHORT TOKYO_LAND CMA_LAT CMA_LON CMA_CAT CMA_WIND CMA_PRES HKO_LAT HKO_LON HKO_CAT HKO_WIND HKO_PRES NEWDELHI_LAT NEWDELHI_LON NEWDELHI_GRADE NEWDELHI_WIND NEWDELHI_PRES NEWDELHI_CI NEWDELHI_DP NEWDELHI_POCI REUNION_LAT REUNION_LON REUNION_TYPE REUNION_WIND REUNION_PRES REUNION_TNUM REUNION_CI REUNION_RMW REUNION_R34_NE REUNION_R34_SE REUNION_R34_SW REUNION_R34_NW REUNION_R50_NE REUNION_R50_SE REUNION_R50_SW REUNION_R50_NW REUNION_R64_NE REUNION_R64_SE REUNION_R64_SW REUNION_R64_NW BOM_LAT BOM_LON BOM_TYPE BOM_WIND BOM_PRES BOM_TNUM BOM_CI BOM_RMW BOM_R34_NE BOM_R34_SE BOM_R34_SW BOM_R34_NW BOM_R50_NE BOM_R50_SE BOM_R50_SW BOM_R50_NW BOM_R64_NE BOM_R64_SE BOM_R64_SW BOM_R64_NW BOM_ROCI BOM_POCI BOM_EYE BOM_POS_METHOD BOM_PRES_METHOD NADI_LAT NADI_LON NADI_CAT NADI_WIND NADI_PRES WELLINGTON_LAT WELLINGTON_LON WELLINGTON_WIND WELLINGTON_PRES DS824_LAT DS824_LON DS824_STAGE DS824_WIND DS824_PRES TD9636_LAT TD9636_LON TD9636_STAGE TD9636_WIND TD9636_PRES TD9635_LAT TD9635_LON TD9635_WIND TD9635_PRES TD9635_ROCI NEUMANN_LAT NEUMANN_LON NEUMANN_CLASS NEUMANN_WIND NEUMANN_PRES MLC_LAT MLC_LON MLC_CLASS MLC_WIND MLC_PRES USA_GUST BOM_GUST BOM_GUST_PER REUNION_GUST REUNION_GUST_PER USA_SEAHGT USA_SEARAD_NE USA_SEARAD_SE USA_SEARAD_SW USA_SEARAD_NW STORM_SPEED STORM_DIR
1911229N23146 1911 51 WP MM NOT_NAMED 1911-08-16 21:00:00 NR 22.8000 146.000 main 1474 1417 __________O___ -1 22.8000 146.000 7 15 291
1911229N23146 1911 51 WP MM NOT_NAMED 1911-08-17 00:00:00 NR 23.0687 145.242 main 1413 1369 __________P___ -1 23.0687 145.242 7 15 291
1911229N23146 1911 51 WP MM NOT_NAMED 1911-08-17 03:00:00 NR 23.3284 144.486 main 1369 1316 __________P___ -1 23.3284 144.486 7 15 290
1911229N23146 1911 51 WP MM NOT_NAMED 1911-08-17 06:00:00 NR 23.5739 143.737 main 1313 1271 __________P___ -1 23.5739 143.737 7 14 289
1911229N23146 1911 51 WP MM NOT_NAMED 1911-08-17 09:00:00 NR 23.8000 143.000 main 1271 1224 __________O___ -1 23.8000 143.000 7 14 288
1911229N23146 1911 51 WP MM NOT_NAMED 1911-08-17 12:00:00 NR 24.0046 142.278 main 1224 1171 __________P___ -1 24.0046 142.278 7 14 287
1911229N23146 1911 51 WP MM NOT_NAMED 1911-08-17 15:00:00 NR 24.1978 141.563 main 1171 1119 __________P___ -1 24.1978 141.563 7 14 286
1911229N23146 1911 51 WP MM NOT_NAMED 1911-08-17 18:00:00 NR 24.3921 140.841 main 1115 1067 __________P___ -1 24.3921 140.841 7 14 287
1911229N23146 1911 51 WP MM NOT_NAMED 1911-08-17 21:00:00 NR 24.6000 140.100 main 1067 1018 __________O___ -1 24.6000 140.100 7 15 287
1911229N23146 1911 51 WP MM NOT_NAMED 1911-08-18 00:00:00 NR 24.8071 139.304 main 1018 973 __________P___ -1 24.8071 139.304 7 15 286
1911229N23146 1911 51 WP MM NOT_NAMED 1911-08-18 03:00:00 NR 25.0325 138.490 main 973 917 __________P___ -1 25.0325 138.490 7 15 288
1911229N23146 1911 51 WP MM NOT_NAMED 1911-08-18 06:00:00 NR 25.2915 137.682 main 917 840 __________P___ -1 25.2915 137.682 7 15 292
1911229N23146 1911 51 WP MM NOT_NAMED 1911-08-18 09:00:00 NR 25.6000 136.900 main 840 756 __________O___ -1 25.6000 136.900 7 16 295
1911229N23146 1911 51 WP MM NOT_NAMED 1911-08-18 12:00:00 NR 25.9754 136.072 main 756 674 __________P___ -1 25.9754 136.072 7 17 299
1911229N23146 1911 51 WP MM NOT_NAMED 1911-08-18 15:00:00 NR 26.3989 135.286 main 674 599 __________P___ -1 26.3989 135.286 7 16 304
1911229N23146 1911 51 WP MM NOT_NAMED 1911-08-18 18:00:00 NR 26.8477 134.607 main 599 526 __________P___ -1 26.8477 134.607 7 14 310
1911229N23146 1911 51 WP MM NOT_NAMED 1911-08-18 21:00:00 NR 27.3000 134.100 main 526 473 __________O___ -1 27.3000 134.100 7 11 320
1911229N23146 1911 51 WP MM NOT_NAMED 1911-08-19 00:00:00 NR 27.7184 133.775 main 473 424 __________P___ -1 27.7184 133.775 7 9 334
1911229N23146 1911 51 WP MM NOT_NAMED 1911-08-19 03:00:00 NR 28.1394 133.634 main 424 386 __________P___ -1 28.1394 133.634 7 9 352
1911229N23146 1911 51 WP MM NOT_NAMED 1911-08-19 06:00:00 NR 28.5658 133.651 main 382 353 __________P___ -1 28.5658 133.651 7 9 10
1911229N23146 1911 51 WP MM NOT_NAMED 1911-08-19 09:00:00 NR 29.0000 133.800 main 353 327 __________O___ -1 29.0000 133.800 7 9 17
1911229N23146 1911 51 WP MM NOT_NAMED 1911-08-19 12:00:00 NR 29.4250 133.949 main 327 319 __________P___ -1 29.4250 133.949 7 9 23
1911229N23146 1911 51 WP MM NOT_NAMED 1911-08-19 15:00:00 NR 29.8597 134.226 main 315 307 __________P___ -1 29.8597 134.226 7 11 34
1911229N23146 1911 51 WP MM NOT_NAMED 1911-08-19 18:00:00 NR 30.3147 134.641 main 307 283 __________P___ -1 30.3147 134.641 7 13 42
1911229N23146 1911 51 WP MM NOT_NAMED 1911-08-19 21:00:00 NR 30.8000 135.200 main 283 234 __________O___ -1 30.8000 135.200 7 15 48
1911229N23146 1911 51 WP MM NOT_NAMED 1911-08-20 00:00:00 NR 31.3332 135.947 main 234 191 __________P___ -1 31.3332 135.947 7 18 52
1911229N23146 1911 51 WP MM NOT_NAMED 1911-08-20 03:00:00 NR 31.8906 136.827 main 191 186 __________P___ -1 31.8906 136.827 7 19 54
1911229N23146 1911 51 WP MM NOT_NAMED 1911-08-20 06:00:00 NR 32.4520 137.744 main 200 179 __________P___ -1 32.4520 137.744 7 19 53
1911229N23146 1911 51 WP MM NOT_NAMED 1911-08-20 09:00:00 NR 33.0000 138.600 main 179 136 __________O___ -1 33.0000 138.600 7 16 51
1911229N23146 1911 51 WP MM NOT_NAMED 1911-08-20 12:00:00 NR 33.4578 139.238 main 128 109 __________P___ -1 33.4578 139.238 7 14 48
1911229N23146 1911 51 WP MM NOT_NAMED 1911-08-20 15:00:00 NR 33.9126 139.800 main 111 66 __________P___ -1 33.9126 139.800 7 13 44
1911229N23146 1911 51 WP MM NOT_NAMED 1911-08-20 18:00:00 NR 34.4112 140.336 main 66 49 __________P___ -1 34.4112 140.336 7 14 40
1911229N23146 1911 51 WP MM NOT_NAMED 1911-08-20 21:00:00 NR 35.0000 140.900 main 50 43 __________O___ -1 35.0000 140.900 7 17 38
1911229N23146 1911 51 WP MM NOT_NAMED 1911-08-21 00:00:00 NR 35.7531 141.610 main 64 64 __________P___ -1 35.7531 141.610 7 20 37
1911229N23146 1911 51 WP MM NOT_NAMED 1911-08-21 03:00:00 NR 36.5920 142.358 main 132 128 __________P___ -1 36.5920 142.358 7 21 35
1911229N23146 1911 51 WP MM NOT_NAMED 1911-08-21 06:00:00 NR 37.4596 143.104 main 165 165 __________P___ -1 37.4596 143.104 7 21 34
1911229N23146 1911 51 WP MM NOT_NAMED 1911-08-21 09:00:00 NR 38.3000 143.800 main 189 189 __________O___ -1 38.3000 143.800 7 19 32
1911229N23146 1911 51 WP MM NOT_NAMED 1911-08-21 12:00:00 NR 39.0711 144.410 main 202 202 __________P___ -1 39.0711 144.410 7 17 31
1911229N23146 1911 51 WP MM NOT_NAMED 1911-08-21 15:00:00 NR 39.7813 144.945 main 241 241 __________P___ -1 39.7813 144.945 7 16 30
1911229N23146 1911 51 WP MM NOT_NAMED 1911-08-21 18:00:00 NR 40.4511 145.433 main 240 219 __________P___ -1 40.4511 145.433 7 15 29
1911229N23146 1911 51 WP MM NOT_NAMED 1911-08-21 21:00:00 NR 41.1000 145.900 main 219 __________O___ -1 41.1000 145.900 7 15 28

デジタル台風データ・検索

IBTrACS Databaseについて

本データベースは、米国NOAAが公開する1842年以降の世界の熱帯低気圧のベストトラックデータアーカイブInternational Best Track Archive for Climate Stewardship (IBTrACS)を、ウェブで閲覧しやすい形式に変換したものです。

最終更新日:2021-10-08